createdAt,value
2023-01-04T00:01:24.391Z,101613.05
2023-01-04T00:03:52.226Z,101616.91
2023-01-04T00:06:20.612Z,101615.84
2023-01-04T00:08:48.877Z,101617.30
2023-01-04T00:11:19.610Z,101613.02
2023-01-04T00:13:49.207Z,101612.14
2023-01-04T00:16:22.276Z,101612.24
2023-01-04T00:18:51.161Z,101612.80
2023-01-04T00:21:27.219Z,101612.84
2023-01-04T00:23:58.182Z,101607.96
2023-01-04T00:26:30.973Z,101606.48
2023-01-04T00:29:02.420Z,101605.96
2023-01-04T00:31:30.591Z,101608.92
2023-01-04T00:34:00.952Z,101607.73
2023-01-04T00:36:29.164Z,101605.70
2023-01-04T00:39:10.805Z,101612.43
2023-01-04T00:44:29.480Z,101619.88
2023-01-04T00:46:58.070Z,101616.44
2023-01-04T00:49:26.727Z,101619.48
2023-01-04T00:51:54.982Z,101615.41
2023-01-04T00:54:22.641Z,101619.02
2023-01-04T00:56:50.830Z,101622.48
2023-01-04T00:59:20.631Z,101623.19
2023-01-04T01:01:49.001Z,101628.20
2023-01-04T01:04:19.762Z,101632.22
2023-01-04T01:06:48.305Z,101633.98
2023-01-04T01:09:16.500Z,101636.12
2023-01-04T01:11:44.460Z,101647.07
2023-01-04T01:14:17.537Z,101651.59
2023-01-04T01:16:55.273Z,101653.73
2023-01-04T01:19:24.877Z,101647.15
2023-01-04T01:21:52.536Z,101650.03
2023-01-04T01:24:20.615Z,101635.91
2023-01-04T01:26:48.441Z,101634.09
2023-01-04T01:29:16.131Z,101628.59
2023-01-04T01:31:44.058Z,101633.98
2023-01-04T01:34:12.064Z,101638.58
2023-01-04T01:36:39.736Z,101629.70
2023-01-04T01:39:07.848Z,101632.52
2023-01-04T01:41:36.019Z,101629.95
2023-01-04T01:44:12.768Z,101630.19
2023-01-04T01:46:45.167Z,101625.90
2023-01-04T01:49:33.880Z,101632.39
2023-01-04T01:52:05.089Z,101624.91
2023-01-04T01:54:37.165Z,101617.35
2023-01-04T01:57:07.638Z,101611.39
2023-01-04T01:59:38.427Z,101613.16
2023-01-04T02:02:06.869Z,101617.08
2023-01-04T02:04:37.221Z,101614.70
2023-01-04T02:07:05.210Z,101616.45
2023-01-04T02:09:33.468Z,101617.46
2023-01-04T02:12:01.077Z,101618.28
2023-01-04T02:14:29.281Z,101617.00
2023-01-04T02:17:13.373Z,101615.63
2023-01-04T02:19:43.679Z,101610.20
2023-01-04T02:22:11.225Z,101607.52
2023-01-04T02:24:53.591Z,101605.91
2023-01-04T02:27:41.366Z,101610.65
2023-01-04T02:30:38.879Z,101606.66
2023-01-04T02:33:25.010Z,101605.67
2023-01-04T02:36:17.993Z,101609.74
2023-01-04T02:39:08.285Z,101605.95
2023-01-04T02:41:48.332Z,101603.23
2023-01-04T02:44:40.660Z,101600.46
2023-01-04T02:47:43.030Z,101592.42
2023-01-04T02:50:31.931Z,101589.94
2023-01-04T02:53:13.216Z,101597.94
2023-01-04T02:56:07.895Z,101590.36
2023-01-04T02:59:03.566Z,101588.44
2023-01-04T03:02:02.064Z,101585.05
2023-01-04T03:04:52.646Z,101583.27
2023-01-04T03:08:15.908Z,101574.35
2023-01-04T03:10:59.233Z,101575.06
2023-01-04T03:13:45.849Z,101579.30
2023-01-04T03:16:20.615Z,101577.86
2023-01-04T03:18:52.911Z,101575.68
2023-01-04T03:21:25.066Z,101569.42
2023-01-04T03:24:16.737Z,101558.48
2023-01-04T03:27:07.137Z,101547.15
2023-01-04T03:29:58.186Z,101550.13
2023-01-04T03:32:51.983Z,101551.58
2023-01-04T03:35:28.157Z,101554.39
2023-01-04T03:38:34.370Z,101554.98
2023-01-04T03:41:26.934Z,101546.90
2023-01-04T03:44:41.946Z,101551.01
2023-01-04T03:47:37.689Z,101540.36
2023-01-04T03:50:21.255Z,101538.89
2023-01-04T03:52:51.114Z,101539.56
2023-01-04T03:55:19.023Z,101537.57
2023-01-04T03:57:47.950Z,101530.80
2023-01-04T04:00:18.557Z,101521.91
2023-01-04T04:02:48.090Z,101518.75
2023-01-04T04:05:36.463Z,101528.07
2023-01-04T04:08:23.745Z,101527.14
2023-01-04T04:10:51.816Z,101528.50
2023-01-04T04:13:19.670Z,101528.50
2023-01-04T04:15:47.896Z,101524.39
2023-01-04T04:18:15.465Z,101521.09
2023-01-04T04:20:43.087Z,101516.88
2023-01-04T04:23:10.641Z,101522.48
2023-01-04T04:25:38.348Z,101519.63
2023-01-04T04:28:06.192Z,101518.53
2023-01-04T04:30:33.851Z,101512.73
2023-01-04T04:33:01.517Z,101513.89
2023-01-04T04:35:29.266Z,101513.02
2023-01-04T04:37:56.920Z,101511.37
2023-01-04T04:40:43.395Z,101509.66
2023-01-04T04:43:11.109Z,101507.88
2023-01-04T04:45:38.763Z,101505.85
2023-01-04T04:48:06.383Z,101502.99
2023-01-04T04:50:33.979Z,101498.63
2023-01-04T04:53:01.745Z,101498.39
2023-01-04T04:55:29.367Z,101499.08
2023-01-04T04:57:56.991Z,101501.95
2023-01-04T05:00:24.620Z,101502.47
2023-01-04T05:02:52.357Z,101505.19
2023-01-04T05:05:20.165Z,101507.28
2023-01-04T05:07:47.772Z,101508.01
2023-01-04T05:10:15.506Z,101510.13
2023-01-04T05:13:01.164Z,101511.59
2023-01-04T05:15:36.593Z,101508.77
2023-01-04T05:18:05.774Z,101502.52
2023-01-04T05:20:34.622Z,101501.98
2023-01-04T05:23:02.243Z,101497.89
2023-01-04T05:25:29.845Z,101498.27
2023-01-04T05:27:57.672Z,101490.90
2023-01-04T05:30:44.222Z,101484.91
2023-01-04T05:33:11.876Z,101480.46
2023-01-04T05:35:39.603Z,101473.27
2023-01-04T05:38:07.278Z,101472.56
2023-01-04T05:40:34.998Z,101479.27
2023-01-04T05:43:02.640Z,101476.80
2023-01-04T05:45:30.377Z,101467.48
2023-01-04T05:47:58.096Z,101471.42
2023-01-04T05:50:26.104Z,101470.05
2023-01-04T05:52:53.939Z,101468.11
2023-01-04T05:55:21.557Z,101471.98
2023-01-04T05:57:50.422Z,101470.92
2023-01-04T06:00:18.287Z,101469.86
2023-01-04T06:02:45.975Z,101460.71
2023-01-04T06:05:14.216Z,101459.05
2023-01-04T06:07:41.910Z,101456.55
2023-01-04T06:10:11.632Z,101454.09
2023-01-04T06:12:39.943Z,101452.17
2023-01-04T06:15:09.654Z,101446.35
2023-01-04T06:17:39.115Z,101437.01
2023-01-04T06:20:09.510Z,101439.84
2023-01-04T06:22:38.547Z,101430.66
2023-01-04T06:25:06.685Z,101424.28
2023-01-04T06:27:34.538Z,101421.56
2023-01-04T06:30:02.222Z,101418.02
2023-01-04T06:32:30.308Z,101416.95
2023-01-04T06:34:58.050Z,101415.12
2023-01-04T06:37:25.777Z,101413.20
2023-01-04T06:39:53.448Z,101409.41
2023-01-04T06:42:39.818Z,101409.91
2023-01-04T06:45:07.997Z,101404.98
2023-01-04T06:47:35.641Z,101403.20
2023-01-04T06:50:04.451Z,101397.23
2023-01-04T06:52:32.099Z,101397.09
2023-01-04T06:54:59.904Z,101395.61
2023-01-04T06:57:27.827Z,101400.34
2023-01-04T06:59:55.403Z,101396.49
2023-01-04T07:02:23.169Z,101397.95
2023-01-04T07:04:51.065Z,101405.08
2023-01-04T07:07:20.403Z,101410.08
2023-01-04T07:09:48.027Z,101413.44
2023-01-04T07:12:15.722Z,101422.64
2023-01-04T07:14:43.531Z,101427.90
2023-01-04T07:17:11.179Z,101434.77
2023-01-04T07:19:38.879Z,101438.95
2023-01-04T07:22:06.559Z,101435.17
2023-01-04T07:24:34.258Z,101437.32
2023-01-04T07:27:02.122Z,101432.21
2023-01-04T07:29:29.796Z,101425.44
2023-01-04T07:31:57.612Z,101414.15
2023-01-04T07:34:25.873Z,101411.61
2023-01-04T07:36:53.563Z,101409.87
2023-01-04T07:39:22.271Z,101413.12
2023-01-04T07:41:50.623Z,101407.98
2023-01-04T07:44:19.609Z,101403.55
2023-01-04T07:46:47.678Z,101394.52
2023-01-04T07:49:18.635Z,101392.36
2023-01-04T07:51:48.137Z,101389.18
2023-01-04T07:54:17.285Z,101380.29
2023-01-04T07:56:46.566Z,101376.17
2023-01-04T07:59:15.547Z,101382.02
2023-01-04T08:01:43.841Z,101383.40
2023-01-04T08:04:13.603Z,101379.84
2023-01-04T08:06:43.427Z,101380.96
2023-01-04T08:09:11.422Z,101379.69
2023-01-04T08:11:39.164Z,101376.30
2023-01-04T08:14:06.879Z,101366.50
2023-01-04T08:16:37.433Z,101360.76
2023-01-04T08:19:06.370Z,101353.98
2023-01-04T08:21:36.026Z,101348.92
2023-01-04T08:24:04.016Z,101349.80
2023-01-04T08:26:32.566Z,101355.41
2023-01-04T08:29:00.255Z,101369.30
2023-01-04T08:31:30.544Z,101360.33
2023-01-04T08:34:01.164Z,101345.41
2023-01-04T08:36:31.422Z,101338.72
2023-01-04T08:39:02.158Z,101324.94
2023-01-04T08:44:24.645Z,101327.23
2023-01-04T08:46:53.675Z,101324.50
2023-01-04T08:49:22.446Z,101322.80
2023-01-04T08:51:50.294Z,101320.77
2023-01-04T08:54:18.507Z,101320.92
2023-01-04T08:56:46.177Z,101318.84
2023-01-04T08:59:14.457Z,101320.90
2023-01-04T09:01:42.406Z,101312.23
2023-01-04T09:04:10.296Z,101309.55
2023-01-04T09:06:38.858Z,101302.36
2023-01-04T09:09:06.596Z,101293.69
2023-01-04T09:11:35.279Z,101292.10
2023-01-04T09:14:08.058Z,101285.56
2023-01-04T09:16:39.929Z,101283.70
2023-01-04T09:19:08.222Z,101275.71
2023-01-04T09:21:35.974Z,101270.65
2023-01-04T09:24:04.061Z,101265.46
2023-01-04T09:26:31.789Z,101259.89
2023-01-04T09:28:59.629Z,101254.90
2023-01-04T09:31:28.817Z,101250.46
2023-01-04T09:34:15.754Z,101245.53
2023-01-04T09:36:45.769Z,101233.84
2023-01-04T09:39:21.664Z,101226.88
2023-01-04T09:42:04.915Z,101218.59
2023-01-04T09:45:21.917Z,101221.08
2023-01-04T09:47:44.184Z,101216.90
2023-01-04T09:50:30.429Z,101203.95
2023-01-04T09:53:02.957Z,101201.26
2023-01-04T09:55:45.758Z,101196.17
2023-01-04T09:58:31.620Z,101184.38
2023-01-04T10:01:04.791Z,101182.17
2023-01-04T10:03:35.584Z,101172.56
2023-01-04T10:06:03.847Z,101174.66
2023-01-04T10:08:31.625Z,101164.50
2023-01-04T10:11:28.289Z,101157.80
2023-01-04T10:14:02.020Z,101151.30
2023-01-04T10:17:20.289Z,101140.66
2023-01-04T10:23:05.378Z,101133.11
2023-01-04T10:25:50.941Z,101133.17
2023-01-04T10:28:24.614Z,101127.05
2023-01-04T10:31:40.492Z,101122.09
2023-01-04T10:34:30.218Z,101116.45
2023-01-04T10:37:03.834Z,101101.73
2023-01-04T10:39:36.019Z,101087.08
2023-01-04T10:42:15.936Z,101071.02
2023-01-04T10:45:08.445Z,101052.31
2023-01-04T10:47:46.792Z,101044.30
2023-01-04T10:50:25.486Z,101029.58
2023-01-04T10:53:16.002Z,101019.74
2023-01-04T10:56:26.476Z,101010.77
2023-01-04T10:58:47.789Z,100999.30
2023-01-04T11:01:30.271Z,100984.99
2023-01-04T11:04:22.962Z,100975.28
2023-01-04T11:07:02.527Z,100970.96
2023-01-04T11:09:39.296Z,100969.78
2023-01-04T11:12:12.282Z,100969.98
2023-01-04T11:14:39.888Z,100969.10
2023-01-04T11:17:10.766Z,100968.45
2023-01-04T11:19:39.838Z,100961.81
2023-01-04T11:22:14.085Z,100958.31
2023-01-04T11:35:07.376Z,100918.16
2023-01-04T11:37:40.556Z,100909.35
2023-01-04T11:40:12.503Z,100899.41
2023-01-04T11:42:40.362Z,100885.72
2023-01-04T11:45:27.006Z,100881.88
2023-01-04T11:47:56.808Z,100867.73
2023-01-04T11:50:41.920Z,100861.89
2023-01-04T11:53:27.957Z,100855.33
2023-01-04T11:56:22.849Z,100852.70
2023-01-04T11:59:08.860Z,100839.05
2023-01-04T12:01:42.899Z,100823.69
2023-01-04T12:04:16.821Z,100806.71
2023-01-04T12:06:55.211Z,100796.84
2023-01-04T12:09:22.946Z,100786.38
2023-01-04T12:11:56.300Z,100785.06
2023-01-04T12:14:33.024Z,100779.86
2023-01-04T12:17:14.189Z,100776.95
2023-01-04T12:19:44.121Z,100778.27
2023-01-04T12:22:29.914Z,100781.48
2023-01-04T12:25:02.252Z,100776.30
2023-01-04T12:27:29.892Z,100769.04
2023-01-04T12:30:02.946Z,100760.59
2023-01-04T12:32:30.505Z,100750.45
2023-01-04T12:34:58.278Z,100739.86
2023-01-04T12:37:45.729Z,100724.06
2023-01-04T12:40:44.754Z,100724.48
2023-01-04T12:43:15.186Z,100729.83
2023-01-04T12:45:48.464Z,100721.98
2023-01-04T12:48:46.887Z,100720.21
2023-01-04T12:51:33.274Z,100713.17
2023-01-04T12:54:05.774Z,100705.77
2023-01-04T12:57:09.703Z,100698.52
2023-01-04T12:59:55.263Z,100691.70
2023-01-04T13:02:30.374Z,100681.05
2023-01-04T13:05:53.263Z,100673.29
2023-01-04T13:07:59.788Z,100662.78
2023-01-04T13:10:33.408Z,100653.73
2023-01-04T13:13:25.746Z,100650.45
2023-01-04T13:16:11.773Z,100650.54
2023-01-04T13:18:56.463Z,100632.16
2023-01-04T13:21:39.295Z,100629.64
2023-01-04T13:24:22.548Z,100618.87
2023-01-04T13:26:54.691Z,100610.27
2023-01-04T13:29:26.864Z,100600.58
2023-01-04T13:31:56.025Z,100589.08
2023-01-04T13:34:27.453Z,100589.61
2023-01-04T13:37:19.266Z,100581.09
2023-01-04T13:39:50.111Z,100575.17
2023-01-04T13:42:17.738Z,100566.23
2023-01-04T13:45:19.673Z,100558.34
2023-01-04T13:47:51.439Z,100546.57
2023-01-04T13:50:26.629Z,100541.30
2023-01-04T13:53:06.319Z,100532.94
2023-01-04T13:55:38.011Z,100528.91
2023-01-04T13:58:16.540Z,100532.85
2023-01-04T14:00:59.651Z,100528.83
2023-01-04T14:03:42.592Z,100534.13
2023-01-04T14:06:10.258Z,100524.58
2023-01-04T14:08:56.897Z,100521.80
2023-01-04T14:11:47.054Z,100513.95
2023-01-04T14:14:53.803Z,100505.05
2023-01-04T14:17:24.264Z,100498.09
2023-01-04T14:19:59.900Z,100498.09
2023-01-04T14:22:39.769Z,100489.27
2023-01-04T14:25:38.333Z,100485.60
2023-01-04T14:28:28.392Z,100473.10
2023-01-04T14:30:59.141Z,100469.27
2023-01-04T14:33:36.379Z,100462.53
2023-01-04T14:36:10.365Z,100450.86
2023-01-04T14:38:47.879Z,100439.88
2023-01-04T14:41:22.561Z,100441.55
2023-01-04T14:44:12.236Z,100439.58
2023-01-04T14:46:41.886Z,100421.98
2023-01-04T14:49:09.820Z,100404.29
2023-01-04T14:51:48.547Z,100385.84
2023-01-04T14:54:24.239Z,100375.41
2023-01-04T14:56:54.812Z,100372.41
2023-01-04T14:59:26.532Z,100364.05
2023-01-04T15:01:56.368Z,100357.66
2023-01-04T15:04:24.390Z,100349.98
2023-01-04T15:06:58.905Z,100346.01
2023-01-04T15:09:28.017Z,100339.80
2023-01-04T15:11:55.913Z,100333.09
2023-01-04T15:14:24.191Z,100323.86
2023-01-04T15:16:51.950Z,100314.29
2023-01-04T15:19:19.724Z,100309.80
2023-01-04T15:21:47.391Z,100308.59
2023-01-04T15:24:15.243Z,100295.38
2023-01-04T15:26:43.555Z,100289.09
2023-01-04T15:29:11.281Z,100290.21
2023-01-04T15:31:41.306Z,100293.30
2023-01-04T15:34:09.860Z,100296.04
2023-01-04T15:36:40.599Z,100289.33
2023-01-04T15:39:14.103Z,100284.15
2023-01-04T15:42:01.161Z,100274.88
2023-01-04T15:44:28.772Z,100265.20
2023-01-04T15:46:59.255Z,100257.38
2023-01-04T15:49:30.437Z,100257.34
2023-01-04T15:51:58.407Z,100248.74
2023-01-04T15:54:27.716Z,100242.80
2023-01-04T15:56:55.910Z,100240.45
2023-01-04T15:59:23.941Z,100236.40
2023-01-04T16:01:51.831Z,100231.80
2023-01-04T16:04:19.647Z,100220.37
2023-01-04T16:06:47.323Z,100213.36
2023-01-04T16:09:15.113Z,100203.81
2023-01-04T16:12:02.751Z,100195.98
2023-01-04T16:14:30.419Z,100197.48
2023-01-04T16:17:00.379Z,100194.23
2023-01-04T16:19:28.240Z,100187.55
2023-01-04T16:21:56.189Z,100179.69
2023-01-04T16:25:00.241Z,100169.61
2023-01-04T16:27:11.571Z,100159.71
2023-01-04T16:29:39.276Z,100159.03
2023-01-04T16:32:07.164Z,100150.98
2023-01-04T16:34:36.042Z,100147.44
2023-01-04T16:37:03.835Z,100136.05
2023-01-04T16:40:05.180Z,100133.55
2023-01-04T16:42:19.386Z,100127.20
2023-01-04T16:44:47.142Z,100119.25
2023-01-04T16:47:14.883Z,100117.11
2023-01-04T16:49:42.717Z,100109.08
2023-01-04T16:52:12.955Z,100099.89
2023-01-04T16:54:40.676Z,100091.21
2023-01-04T16:57:08.323Z,100082.94
2023-01-04T16:59:36.004Z,100074.81
2023-01-04T17:02:03.787Z,100076.07
2023-01-04T17:04:31.467Z,100068.92
2023-01-04T17:06:59.137Z,100071.29
2023-01-04T17:09:27.094Z,100076.84
2023-01-04T17:14:45.449Z,100069.41
2023-01-04T17:17:13.195Z,100069.21
2023-01-04T17:19:40.840Z,100059.98
2023-01-04T17:22:08.662Z,100059.22
2023-01-04T17:24:36.336Z,100064.22
2023-01-04T17:27:03.953Z,100060.04
2023-01-04T17:29:31.576Z,100051.59
2023-01-04T17:31:59.419Z,100034.98
2023-01-04T17:34:27.299Z,100029.88
2023-01-04T17:36:55.029Z,100026.23
2023-01-04T17:39:22.692Z,100019.98
2023-01-04T17:41:50.410Z,100013.15
2023-01-04T17:44:18.080Z,100005.06
2023-01-04T17:46:45.754Z,100004.63
2023-01-04T17:49:32.049Z,99989.95
2023-01-04T17:52:00.188Z,99984.50
2023-01-04T17:54:27.884Z,99975.88
2023-01-04T17:56:55.564Z,99965.98
2023-01-04T17:59:23.337Z,99963.13
2023-01-04T18:01:51.034Z,99958.09
2023-01-04T18:04:18.793Z,99947.34
2023-01-04T18:06:46.405Z,99947.15
2023-01-04T18:09:18.517Z,99938.34
2023-01-04T18:11:51.089Z,99933.44
2023-01-04T18:14:19.025Z,99924.70
2023-01-04T18:16:56.603Z,99918.16
2023-01-04T18:19:27.313Z,99912.13
2023-01-04T18:21:55.546Z,99904.49
2023-01-04T18:24:39.417Z,99897.81
2023-01-04T18:27:26.465Z,99899.83
2023-01-04T18:29:56.084Z,99896.61
2023-01-04T18:32:25.882Z,99892.82
2023-01-04T18:34:53.515Z,99885.52
2023-01-04T18:37:21.544Z,99879.58
2023-01-04T18:39:49.242Z,99871.09
2023-01-04T18:42:17.169Z,99861.25
2023-01-04T18:44:49.113Z,99857.54
2023-01-04T18:47:20.078Z,99848.23
2023-01-04T18:49:49.675Z,99839.86
2023-01-04T18:52:18.664Z,99835.76
2023-01-04T18:54:47.854Z,99836.27
2023-01-04T18:57:15.810Z,99832.86
2023-01-04T18:59:43.494Z,99823.69
2023-01-04T19:02:19.444Z,99822.03
2023-01-04T19:04:47.367Z,99816.93
2023-01-04T19:07:15.097Z,99808.77
2023-01-04T19:09:43.275Z,99798.71
2023-01-04T19:12:11.233Z,99793.35
2023-01-04T19:14:39.223Z,99787.64
2023-01-04T19:17:08.173Z,99787.12
2023-01-04T19:19:36.521Z,99777.93
2023-01-04T19:22:04.265Z,99781.71
2023-01-04T19:24:31.872Z,99776.22
2023-01-04T19:27:03.191Z,99768.73
2023-01-04T19:29:32.266Z,99756.73
2023-01-04T19:31:59.923Z,99754.73
2023-01-04T19:34:28.154Z,99757.13
2023-01-04T19:36:55.886Z,99757.23
2023-01-04T19:39:23.479Z,99750.27
2023-01-04T19:41:51.075Z,99748.09
2023-01-04T19:44:18.727Z,99748.13
2023-01-04T19:46:46.457Z,99741.73
2023-01-04T19:49:15.383Z,99736.63
2023-01-04T19:51:45.428Z,99737.42
2023-01-04T19:54:14.356Z,99741.95
2023-01-04T19:56:42.104Z,99730.63
2023-01-04T20:02:12.385Z,99724.99
2023-01-04T20:04:40.147Z,99721.17
2023-01-04T20:07:07.990Z,99722.55
2023-01-04T20:09:35.784Z,99717.36
2023-01-04T20:12:03.722Z,99714.47
2023-01-04T20:14:31.369Z,99703.70
2023-01-04T20:16:59.283Z,99698.52
2023-01-04T20:19:27.043Z,99703.45
2023-01-04T20:21:54.777Z,99700.98
2023-01-04T20:24:22.472Z,99695.23
2023-01-04T20:26:50.321Z,99685.42
2023-01-04T20:29:18.071Z,99693.67
2023-01-04T20:31:46.143Z,99692.77
2023-01-04T20:34:14.435Z,99687.00
2023-01-04T20:36:42.209Z,99682.20
2023-01-04T20:39:10.220Z,99686.38
2023-01-04T20:41:58.765Z,99686.55
2023-01-04T20:44:26.496Z,99679.42
2023-01-04T20:46:54.318Z,99677.87
2023-01-04T20:49:21.996Z,99671.45
2023-01-04T20:51:50.013Z,99673.91
2023-01-04T20:54:17.709Z,99663.52
2023-01-04T20:56:45.435Z,99663.95
2023-01-04T20:59:14.177Z,99653.53
2023-01-04T21:01:42.182Z,99650.67
2023-01-04T21:04:10.007Z,99648.91
2023-01-04T21:06:37.665Z,99647.00
2023-01-04T21:09:05.254Z,99643.08
2023-01-04T21:11:32.851Z,99646.48
2023-01-04T21:14:01.947Z,99637.40
2023-01-04T21:16:30.850Z,99635.67
2023-01-04T21:18:59.155Z,99634.73
2023-01-04T21:21:26.836Z,99625.22
2023-01-04T21:23:57.952Z,99620.42
2023-01-04T21:26:25.942Z,99622.80
2023-01-04T21:28:53.694Z,99617.55
2023-01-04T21:31:24.140Z,99614.67
2023-01-04T21:33:53.783Z,99615.46
2023-01-04T21:36:24.373Z,99603.04
2023-01-04T21:38:53.873Z,99594.02
2023-01-04T21:41:25.588Z,99582.55
2023-01-04T21:43:56.255Z,99580.61
2023-01-04T21:46:25.528Z,99576.17
2023-01-04T21:48:55.608Z,99566.69
2023-01-04T21:51:23.683Z,99566.98
2023-01-04T21:53:51.327Z,99573.40
2023-01-04T21:56:21.916Z,99571.79
2023-01-04T21:58:50.006Z,99576.78
2023-01-04T22:01:26.327Z,99569.88
2023-01-04T22:03:57.002Z,99570.95
2023-01-04T22:06:25.750Z,99571.20
2023-01-04T22:08:53.612Z,99572.73
2023-01-04T22:11:21.391Z,99561.33
2023-01-04T22:13:50.598Z,99561.95
2023-01-04T22:16:18.604Z,99558.92
2023-01-04T22:18:52.694Z,99550.64
2023-01-04T22:21:24.956Z,99541.89
2023-01-04T22:23:54.181Z,99539.21
2023-01-04T22:26:21.863Z,99536.12
2023-01-04T22:28:49.540Z,99535.72
2023-01-04T22:31:17.203Z,99529.49
2023-01-04T22:33:45.028Z,99525.16
2023-01-04T22:36:22.352Z,99514.57
2023-01-04T22:38:53.399Z,99511.98
2023-01-04T22:41:23.537Z,99505.59
2023-01-04T22:43:59.350Z,99501.56
2023-01-04T22:46:28.432Z,99492.98
2023-01-04T22:48:56.903Z,99491.59
2023-01-04T22:51:27.512Z,99483.23
2023-01-04T22:53:57.277Z,99480.11
2023-01-04T22:56:25.598Z,99474.36
2023-01-04T22:58:55.760Z,99466.30
2023-01-04T23:01:26.487Z,99469.50
2023-01-04T23:03:55.387Z,99462.19
2023-01-04T23:06:24.171Z,99447.34
2023-01-04T23:09:04.421Z,99439.55
2023-01-04T23:11:33.601Z,99437.17
2023-01-04T23:14:03.480Z,99434.73
2023-01-04T23:16:33.082Z,99427.21
2023-01-04T23:19:02.474Z,99421.05
2023-01-04T23:21:31.204Z,99419.08
2023-01-04T23:24:00.174Z,99418.02
2023-01-04T23:26:29.640Z,99411.48
2023-01-04T23:28:57.670Z,99406.60
2023-01-04T23:31:29.111Z,99408.52
2023-01-04T23:33:59.058Z,99402.89
2023-01-04T23:36:36.164Z,99398.44
2023-01-04T23:39:06.832Z,99394.27
2023-01-04T23:41:47.189Z,99381.91
2023-01-04T23:46:54.709Z,99374.93
2023-01-04T23:49:23.712Z,99374.87
2023-01-04T23:51:52.105Z,99370.39
2023-01-04T23:54:20.512Z,99370.40
2023-01-04T23:56:48.376Z,99363.54
2023-01-04T23:59:16.444Z,99363.16
